^^
Station Historical Data
Daily Summary for October 8, 2017 Units:  English    Metric   Both
« Previous Day
Next Day »
Daily Weekly Monthly Yearly Custom
  High: Low: Average:
Temperature: 77.0 °F 70.3 °F 73.3 °F
Dew Point: 72.7 °F 67.1 °F 70.3 °F
Humidity: 96% 86% 90%
Wind Speed: 9.0mph 0.0mph 3.3mph
Wind Gust: 18.0mph - -
Wind- - SSW
Pressure: 30.02 in 29.91 in -
Precipitation: 0.11 in    
Historical Graphs
 
 
Tabular Data for October 8, 2017
Time Temperature Dew Point Pressure Wind Wind Speed Wind Gust Humidity Rainfall Rate (Hourly) Conditions
00:00 70.3 °F 67.2 °F 30.02 in South 1.0 mph 12.0 mph 90% 0.00 in BKN
00:15 70.5 °F 67.1 °F 30.02 in SSW 3.0 mph 9.0 mph 89% 0.00 in OVC
00:30 70.6 °F 67.2 °F 30.01 in SW 3.0 mph 8.0 mph 89% 0.00 in OVC
00:45 70.7 °F 67.3 °F 30.01 in South 3.0 mph 8.0 mph 89% 0.00 in OVC
01:00 70.7 °F 67.3 °F 30.01 in SSW 2.0 mph 10.0 mph 89% 0.00 in OVC
01:15 70.7 °F 67.6 °F 30.01 in SSW 1.0 mph 7.0 mph 90% 0.00 in OVC
01:30 70.6 °F 67.5 °F 30.01 in SSW 1.0 mph 5.0 mph 90% 0.00 in OVC
02:00 71.1 °F 67.7 °F 30.00 in South 2.0 mph 8.0 mph 89% 0.00 in OVC
02:15 71.1 °F 67.7 °F 29.99 in SSW 1.0 mph 12.0 mph 89% 0.00 in OVC
02:30 71.1 °F 67.7 °F 29.99 in SSW 1.0 mph 7.0 mph 89% 0.00 in OVC
02:45 71.1 °F 68.0 °F 29.99 in SSW 2.0 mph 12.0 mph 90% 0.00 in OVC
03:00 71.4 °F 68.3 °F 29.99 in SSW 6.0 mph 12.0 mph 90% 0.00 in OVC
03:15 71.7 °F 68.3 °F 29.99 in SW 3.0 mph 13.0 mph 89% 0.00 in OVC
03:30 71.7 °F 68.3 °F 29.99 in SW 3.0 mph 12.0 mph 89% 0.00 in OVC
03:45 71.6 °F 68.2 °F 29.98 in SW 2.0 mph 9.0 mph 89% 0.00 in OVC
04:00 71.4 °F 68.3 °F 29.97 in SSW 2.0 mph 8.0 mph 90% 0.00 in OVC
04:15 71.2 °F 68.5 °F 29.97 in SW 2.0 mph 12.0 mph 91% 0.00 in OVC
04:30 71.0 °F 68.6 °F 29.97 in South 6.0 mph 12.0 mph 92% 0.00 in OVC
04:45 70.7 °F 68.6 °F 29.95 in SSW 2.0 mph 8.0 mph 93% 0.00 in OVC
05:00 70.4 °F 68.3 °F 29.95 in SSW 1.0 mph 7.0 mph 93% 0.00 in OVC
05:15 70.3 °F 68.5 °F 29.95 in SSW 3.0 mph 9.0 mph 94% 0.00 in OVC
05:30 70.4 °F 68.6 °F 29.95 in SSW 1.0 mph 8.0 mph 94% 0.00 in OVC
05:45 70.5 °F 68.7 °F 29.94 in Calm   7.0 mph 94% 0.00 in OVC
06:15 71.2 °F 69.1 °F 29.94 in SSW 2.0 mph 10.0 mph 93% 0.00 in OVC
06:30 71.4 °F 69.0 °F 29.93 in South 2.0 mph 9.0 mph 92% 0.00 in OVC
06:45 71.6 °F 69.2 °F 29.93 in South 2.0 mph 10.0 mph 92% 0.00 in OVC
07:00 72.0 °F 69.2 °F 29.93 in SSW 6.0 mph 17.0 mph 91% 0.00 in OVC
07:15 72.1 °F 69.0 °F 29.93 in SSW 3.0 mph 12.0 mph 90% 0.00 in OVC
07:30 72.0 °F 68.9 °F 29.93 in SSW 7.0 mph 12.0 mph 90% 0.00 in OVC
08:00 73.0 °F 69.3 °F 29.93 in SSW 7.0 mph 18.0 mph 88% 0.00 in OVC
08:15 73.2 °F 69.4 °F 29.93 in SW 5.0 mph 13.0 mph 88% 0.00 in BKN
08:30 72.9 °F 69.5 °F 29.93 in SSW 5.0 mph 15.0 mph 89% 0.01 in RA
08:45 71.9 °F 69.4 °F 29.93 in South 3.0 mph 15.0 mph 92% 0.05 in RA
09:15 71.1 °F 69.6 °F 29.92 in SW 3.0 mph 10.0 mph 95% 0.00 in -RA
09:30 71.1 °F 69.6 °F 29.92 in South 3.0 mph 12.0 mph 95% 0.00 in -RA
09:45 71.1 °F 69.6 °F 29.92 in SSW 5.0 mph 12.0 mph 95% 0.00 in -RA
10:00 71.3 °F 69.8 °F 29.92 in South 5.0 mph 16.0 mph 95% 0.00 in -RA
10:15 71.8 °F 70.3 °F 29.92 in SSW 6.0 mph 13.0 mph 95% 0.01 in -RA
10:30 72.1 °F 70.6 °F 29.93 in SSW 9.0 mph 18.0 mph 95% 0.00 in -RA
10:45 72.0 °F 70.5 °F 29.93 in SSW 5.0 mph 15.0 mph 95% 0.02 in -RA
11:00 72.0 °F 70.5 °F 29.93 in SSW 3.0 mph 14.0 mph 95% 0.01 in -RA
11:15 72.1 °F 70.9 °F 29.93 in SSW 2.0 mph 12.0 mph 96% 0.01 in -RA
11:30 72.3 °F 71.1 °F 29.92 in South 5.0 mph 12.0 mph 96% 0.00 in -RA
11:45 72.7 °F 71.5 °F 29.93 in SSW 6.0 mph 14.0 mph 96% 0.00 in -RA
12:15 73.1 °F 71.6 °F 29.93 in SSW 5.0 mph 13.0 mph 95% 0.00 in -RA
12:30 73.3 °F 71.8 °F 29.93 in South 5.0 mph 13.0 mph 95% 0.00 in -RA
12:45 73.9 °F 72.1 °F 29.92 in SW 5.0 mph 17.0 mph 94% 0.00 in -RA
13:00 74.4 °F 72.2 °F 29.92 in South 5.0 mph 13.0 mph 93% 0.00 in -RA
13:15 74.6 °F 72.1 °F 29.92 in SSW 7.0 mph 17.0 mph 92% 0.00 in -DZ
13:30 74.6 °F 72.1 °F 29.92 in SSW 3.0 mph 13.0 mph 92% 0.00 in -DZ
13:45 74.9 °F 72.1 °F 29.91 in SSW 5.0 mph 12.0 mph 91% 0.00 in -DZ
14:00 75.7 °F 72.5 °F 29.91 in SSW 3.0 mph 12.0 mph 90% 0.00 in -DZ
14:15 76.1 °F 72.3 °F 29.91 in South 3.0 mph 12.0 mph 88% 0.00 in OVC
14:30 76.2 °F 72.4 °F 29.91 in SSW 5.0 mph 10.0 mph 88% 0.00 in OVC
14:45 76.1 °F 72.3 °F 29.91 in SSW 5.0 mph 12.0 mph 88% 0.00 in OVC
15:00 76.5 °F 72.7 °F 29.91 in SSW 1.0 mph 10.0 mph 88% 0.00 in OVC
15:15 76.6 °F 72.4 °F 29.91 in SSW 2.0 mph 12.0 mph 87% 0.00 in OVC
15:45 77.0 °F 72.5 °F 29.91 in South 5.0 mph 11.0 mph 86% 0.00 in OVC
16:00 77.0 °F 72.5 °F 29.91 in South 3.0 mph 9.0 mph 86% 0.00 in OVC
16:15 77.0 °F 72.5 °F 29.91 in SSW 3.0 mph 12.0 mph 86% 0.00 in BKN
16:30 76.9 °F 72.4 °F 29.91 in SSW 3.0 mph 12.0 mph 86% 0.00 in BKN
16:45 76.7 °F 72.5 °F 29.91 in SSW 1.0 mph 12.0 mph 87% 0.00 in BKN
17:00 76.6 °F 72.4 °F 29.91 in SW 2.0 mph 10.0 mph 87% 0.00 in BKN
17:15 76.5 °F 72.0 °F 29.92 in SSW 5.0 mph 10.0 mph 86% 0.00 in BKN
17:30 76.4 °F 72.2 °F 29.93 in SW 3.0 mph 10.0 mph 87% 0.00 in BKN
17:45 76.2 °F 72.0 °F 29.93 in SW 5.0 mph 9.0 mph 87% 0.00 in BKN
18:00 75.9 °F 72.1 °F 29.94 in SSW 6.0 mph 12.0 mph 88% 0.00 in BKN
18:15 75.6 °F 71.8 °F 29.94 in SW 3.0 mph 12.0 mph 88% 0.00 in SCT
18:30 75.4 °F 71.6 °F 29.94 in South 3.0 mph 10.0 mph 88% 0.00 in SCT
18:45 75.1 °F 71.6 °F 29.95 in SSW 1.0 mph 12.0 mph 89% 0.00 in SCT
19:15 74.8 °F 71.3 °F 29.96 in SSW 3.0 mph 9.0 mph 89% 0.00 in SCT
19:30 74.6 °F 71.1 °F 29.96 in South 3.0 mph 8.0 mph 89% 0.00 in SCT
20:00 74.5 °F 71.0 °F 29.97 in South 2.0 mph 7.0 mph 89% 0.00 in SCT
20:15 74.4 °F 71.3 °F 29.98 in South 3.0 mph 7.0 mph 90% 0.00 in CLR
20:30 74.4 °F 71.3 °F 29.98 in SSW 5.0 mph 8.0 mph 90% 0.00 in CLR
20:45 74.4 °F 71.3 °F 29.98 in SSW 3.0 mph 8.0 mph 90% 0.00 in CLR
21:00 74.4 °F 71.3 °F 29.98 in Calm   6.0 mph 90% 0.00 in CLR
21:15 74.4 °F 71.3 °F 29.98 in South 2.0 mph 7.0 mph 90% 0.00 in SCT
21:30 74.4 °F 71.3 °F 29.98 in South 3.0 mph 5.0 mph 90% 0.00 in SCT
21:45 74.4 °F 71.3 °F 29.98 in SSW 2.0 mph 7.0 mph 90% 0.00 in SCT
22:00 74.7 °F 71.2 °F 29.99 in SSW 5.0 mph 9.0 mph 89% 0.00 in SCT
22:15 74.8 °F 71.0 °F 30.00 in SSW 3.0 mph 8.0 mph 88% 0.00 in SCT
22:30 74.8 °F 71.0 °F 30.00 in SSW 3.0 mph 7.0 mph 88% 0.00 in SCT
22:45 74.7 °F 70.9 °F 30.00 in SSW 1.0 mph 6.0 mph 88% 0.00 in SCT
23:00 74.5 °F 71.0 °F 30.01 in SSW 2.0 mph 5.0 mph 89% 0.00 in SCT
23:30 74.4 °F 70.9 °F 30.00 in SSW 1.0 mph 6.0 mph 89% 0.00 in SCT
23:45 74.3 °F 70.8 °F 30.00 in SSW 2.0 mph 7.0 mph 89% 0.00 in SCT
TarryTown NY Weather
Compliments of Weather Underground - 1.5 mb